sensor_id;sensor_type;location;lat;lon;timestamp;temperature;humidity
16966;DHT22;8599;47.852;12.070;2022-12-13T00:01:57;-6.80;99.90
16966;DHT22;8599;47.852;12.070;2022-12-13T00:04:25;-6.80;99.90
16966;DHT22;8599;47.852;12.070;2022-12-13T00:06:52;-7.00;99.90
16966;DHT22;8599;47.852;12.070;2022-12-13T00:09:19;-7.00;99.90
16966;DHT22;8599;47.852;12.070;2022-12-13T00:11:47;-7.10;99.90
16966;DHT22;8599;47.852;12.070;2022-12-13T00:14:15;-7.40;99.90
16966;DHT22;8599;47.852;12.070;2022-12-13T00:16:44;-7.50;99.90
16966;DHT22;8599;47.852;12.070;2022-12-13T00:19:12;-7.60;99.90
16966;DHT22;8599;47.852;12.070;2022-12-13T00:21:40;-7.60;99.90
16966;DHT22;8599;47.852;12.070;2022-12-13T00:24:07;-7.80;99.90
16966;DHT22;8599;47.852;12.070;2022-12-13T00:26:34;-7.80;99.90
16966;DHT22;8599;47.852;12.070;2022-12-13T00:29:03;-7.60;99.90
16966;DHT22;8599;47.852;12.070;2022-12-13T00:31:30;-7.50;99.90
16966;DHT22;8599;47.852;12.070;2022-12-13T00:33:57;-7.40;99.90
16966;DHT22;8599;47.852;12.070;2022-12-13T00:36:24;-7.30;99.90
16966;DHT22;8599;47.852;12.070;2022-12-13T00:38:52;-7.40;99.90
16966;DHT22;8599;47.852;12.070;2022-12-13T00:41:27;-7.50;99.90
16966;DHT22;8599;47.852;12.070;2022-12-13T00:43:54;-7.50;99.90
16966;DHT22;8599;47.852;12.070;2022-12-13T00:46:21;-7.40;99.90
16966;DHT22;8599;47.852;12.070;2022-12-13T00:48:49;-7.40;99.90
16966;DHT22;8599;47.852;12.070;2022-12-13T00:51:16;-7.30;99.90
16966;DHT22;8599;47.852;12.070;2022-12-13T00:53:43;-7.20;99.90
16966;DHT22;8599;47.852;12.070;2022-12-13T00:56:13;-7.30;99.90
16966;DHT22;8599;47.852;12.070;2022-12-13T00:58:40;-7.30;99.90
16966;DHT22;8599;47.852;12.070;2022-12-13T01:01:09;-7.30;99.90
16966;DHT22;8599;47.852;12.070;2022-12-13T01:03:36;-7.20;99.90
16966;DHT22;8599;47.852;12.070;2022-12-13T01:06:08;-7.30;99.90
16966;DHT22;8599;47.852;12.070;2022-12-13T01:08:35;-7.60;99.90
16966;DHT22;8599;47.852;12.070;2022-12-13T01:11:02;-7.60;99.90
16966;DHT22;8599;47.852;12.070;2022-12-13T01:13:31;-7.50;99.90
16966;DHT22;8599;47.852;12.070;2022-12-13T01:16:00;-7.50;99.90
16966;DHT22;8599;47.852;12.070;2022-12-13T01:18:27;-7.60;99.90
16966;DHT22;8599;47.852;12.070;2022-12-13T01:20:58;-7.50;99.90
16966;DHT22;8599;47.852;12.070;2022-12-13T01:23:25;-7.50;99.90
16966;DHT22;8599;47.852;12.070;2022-12-13T01:25:52;-7.60;99.90
16966;DHT22;8599;47.852;12.070;2022-12-13T01:28:20;-7.70;99.90
16966;DHT22;8599;47.852;12.070;2022-12-13T01:30:54;-7.80;99.90
16966;DHT22;8599;47.852;12.070;2022-12-13T01:33:22;-7.80;99.90
16966;DHT22;8599;47.852;12.070;2022-12-13T01:35:49;-7.80;99.90
16966;DHT22;8599;47.852;12.070;2022-12-13T01:38:16;-7.90;99.90
16966;DHT22;8599;47.852;12.070;2022-12-13T01:40:44;-7.70;99.90
16966;DHT22;8599;47.852;12.070;2022-12-13T01:43:12;-7.70;99.90
16966;DHT22;8599;47.852;12.070;2022-12-13T01:45:39;-7.70;99.90
16966;DHT22;8599;47.852;12.070;2022-12-13T01:48:10;-7.70;99.90
16966;DHT22;8599;47.852;12.070;2022-12-13T01:50:42;-7.60;99.90
16966;DHT22;8599;47.852;12.070;2022-12-13T01:53:14;-7.50;99.90
16966;DHT22;8599;47.852;12.070;2022-12-13T01:55:43;-7.50;99.90
16966;DHT22;8599;47.852;12.070;2022-12-13T01:58:12;-7.50;99.90
16966;DHT22;8599;47.852;12.070;2022-12-13T02:00:40;-7.60;99.90
16966;DHT22;8599;47.852;12.070;2022-12-13T02:03:10;-7.50;99.90
16966;DHT22;8599;47.852;12.070;2022-12-13T02:05:40;-7.60;99.90
16966;DHT22;8599;47.852;12.070;2022-12-13T02:08:10;-7.80;99.90
16966;DHT22;8599;47.852;12.070;2022-12-13T02:10:39;-7.90;99.90
16966;DHT22;8599;47.852;12.070;2022-12-13T02:13:07;-7.70;99.90
16966;DHT22;8599;47.852;12.070;2022-12-13T02:15:39;-7.80;99.90
16966;DHT22;8599;47.852;12.070;2022-12-13T02:18:22;-7.80;99.90
16966;DHT22;8599;47.852;12.070;2022-12-13T02:21:00;-7.80;99.90
16966;DHT22;8599;47.852;12.070;2022-12-13T02:29:34;-7.90;99.90
16966;DHT22;8599;47.852;12.070;2022-12-13T02:32:11;-7.90;99.90
16966;DHT22;8599;47.852;12.070;2022-12-13T02:34:46;-8.10;99.90
16966;DHT22;8599;47.852;12.070;2022-12-13T02:37:19;-8.20;99.90
16966;DHT22;8599;47.852;12.070;2022-12-13T02:39:52;-8.20;99.90
16966;DHT22;8599;47.852;12.070;2022-12-13T02:42:24;-8.30;99.90
16966;DHT22;8599;47.852;12.070;2022-12-13T02:44:55;-8.50;99.90
16966;DHT22;8599;47.852;12.070;2022-12-13T02:47:25;-8.40;99.90
16966;DHT22;8599;47.852;12.070;2022-12-13T02:49:55;-8.40;99.90
16966;DHT22;8599;47.852;12.070;2022-12-13T02:52:25;-8.40;99.90
16966;DHT22;8599;47.852;12.070;2022-12-13T02:54:53;-8.40;99.90
16966;DHT22;8599;47.852;12.070;2022-12-13T02:57:31;-8.40;99.90
16966;DHT22;8599;47.852;12.070;2022-12-13T03:00:01;-8.30;99.90
16966;DHT22;8599;47.852;12.070;2022-12-13T03:02:36;-8.30;99.90
16966;DHT22;8599;47.852;12.070;2022-12-13T03:05:12;-8.20;99.90
16966;DHT22;8599;47.852;12.070;2022-12-13T03:08:10;-8.40;99.90
16966;DHT22;8599;47.852;12.070;2022-12-13T03:10:43;-8.20;99.90
16966;DHT22;8599;47.852;12.070;2022-12-13T03:13:17;-8.10;99.90
16966;DHT22;8599;47.852;12.070;2022-12-13T03:16:07;-8.10;99.90
16966;DHT22;8599;47.852;12.070;2022-12-13T03:18:36;-8.30;99.90
16966;DHT22;8599;47.852;12.070;2022-12-13T03:21:06;-8.20;99.90
16966;DHT22;8599;47.852;12.070;2022-12-13T03:23:34;-8.30;99.90
16966;DHT22;8599;47.852;12.070;2022-12-13T03:26:06;-8.40;99.90
16966;DHT22;8599;47.852;12.070;2022-12-13T03:28:34;-8.60;99.90
16966;DHT22;8599;47.852;12.070;2022-12-13T03:31:01;-8.50;99.90
16966;DHT22;8599;47.852;12.070;2022-12-13T03:33:27;-8.70;99.90
16966;DHT22;8599;47.852;12.070;2022-12-13T03:35:56;-9.00;99.90
16966;DHT22;8599;47.852;12.070;2022-12-13T03:38:23;-9.10;99.90
16966;DHT22;8599;47.852;12.070;2022-12-13T03:40:54;-8.90;99.90
16966;DHT22;8599;47.852;12.070;2022-12-13T03:43:22;-9.00;99.90
16966;DHT22;8599;47.852;12.070;2022-12-13T03:45:49;-9.10;99.90
16966;DHT22;8599;47.852;12.070;2022-12-13T03:48:16;-8.80;99.90
16966;DHT22;8599;47.852;12.070;2022-12-13T03:50:43;-8.70;99.90
16966;DHT22;8599;47.852;12.070;2022-12-13T03:53:11;-8.90;99.90
16966;DHT22;8599;47.852;12.070;2022-12-13T03:55:38;-8.80;99.90
16966;DHT22;8599;47.852;12.070;2022-12-13T03:58:04;-8.70;99.90
16966;DHT22;8599;47.852;12.070;2022-12-13T04:00:31;-8.60;99.90
16966;DHT22;8599;47.852;12.070;2022-12-13T04:02:58;-8.70;99.90
16966;DHT22;8599;47.852;12.070;2022-12-13T04:05:25;-8.70;99.90
16966;DHT22;8599;47.852;12.070;2022-12-13T04:07:53;-8.70;99.90
16966;DHT22;8599;47.852;12.070;2022-12-13T04:10:21;-8.80;99.90
16966;DHT22;8599;47.852;12.070;2022-12-13T04:12:48;-8.80;99.90
16966;DHT22;8599;47.852;12.070;2022-12-13T04:15:32;-8.90;99.90
16966;DHT22;8599;47.852;12.070;2022-12-13T04:17:59;-8.70;99.90
16966;DHT22;8599;47.852;12.070;2022-12-13T04:20:26;-8.60;99.90
16966;DHT22;8599;47.852;12.070;2022-12-13T04:22:53;-8.80;99.90
16966;DHT22;8599;47.852;12.070;2022-12-13T04:25:21;-8.90;99.90
16966;DHT22;8599;47.852;12.070;2022-12-13T04:27:47;-8.90;99.90
16966;DHT22;8599;47.852;12.070;2022-12-13T04:30:14;-8.90;99.90
16966;DHT22;8599;47.852;12.070;2022-12-13T04:32:41;-8.80;99.90
16966;DHT22;8599;47.852;12.070;2022-12-13T04:35:08;-8.90;99.90
16966;DHT22;8599;47.852;12.070;2022-12-13T04:37:35;-9.00;99.90
16966;DHT22;8599;47.852;12.070;2022-12-13T04:40:02;-9.00;99.90
16966;DHT22;8599;47.852;12.070;2022-12-13T04:42:31;-9.10;99.90
16966;DHT22;8599;47.852;12.070;2022-12-13T04:44:57;-9.00;99.90
16966;DHT22;8599;47.852;12.070;2022-12-13T04:47:24;-9.10;99.90
16966;DHT22;8599;47.852;12.070;2022-12-13T04:49:51;-9.30;99.90
16966;DHT22;8599;47.852;12.070;2022-12-13T04:52:18;-9.30;99.90
16966;DHT22;8599;47.852;12.070;2022-12-13T04:54:45;-9.30;99.90
16966;DHT22;8599;47.852;12.070;2022-12-13T04:57:12;-9.30;99.90
16966;DHT22;8599;47.852;12.070;2022-12-13T04:59:40;-9.30;99.90
16966;DHT22;8599;47.852;12.070;2022-12-13T05:02:09;-9.20;99.90
16966;DHT22;8599;47.852;12.070;2022-12-13T05:04:35;-9.10;99.90
16966;DHT22;8599;47.852;12.070;2022-12-13T05:07:02;-8.90;99.90
16966;DHT22;8599;47.852;12.070;2022-12-13T05:09:29;-9.00;99.90
16966;DHT22;8599;47.852;12.070;2022-12-13T05:11:56;-9.00;99.90
16966;DHT22;8599;47.852;12.070;2022-12-13T05:14:23;-8.90;99.90
16966;DHT22;8599;47.852;12.070;2022-12-13T05:16:51;-8.80;99.90
16966;DHT22;8599;47.852;12.070;2022-12-13T05:19:18;-8.80;99.90
16966;DHT22;8599;47.852;12.070;2022-12-13T05:21:45;-8.80;99.90
16966;DHT22;8599;47.852;12.070;2022-12-13T05:24:12;-8.80;99.90
16966;DHT22;8599;47.852;12.070;2022-12-13T05:26:39;-8.80;99.90
16966;DHT22;8599;47.852;12.070;2022-12-13T05:29:05;-8.90;99.90
16966;DHT22;8599;47.852;12.070;2022-12-13T05:31:32;-9.00;99.90
16966;DHT22;8599;47.852;12.070;2022-12-13T05:34:00;-9.10;99.90
16966;DHT22;8599;47.852;12.070;2022-12-13T05:36:27;-9.20;99.90
16966;DHT22;8599;47.852;12.070;2022-12-13T05:38:54;-9.20;99.90
16966;DHT22;8599;47.852;12.070;2022-12-13T05:41:22;-9.30;99.90
16966;DHT22;8599;47.852;12.070;2022-12-13T05:43:50;-9.20;99.90
16966;DHT22;8599;47.852;12.070;2022-12-13T05:46:17;-9.10;99.90
16966;DHT22;8599;47.852;12.070;2022-12-13T05:48:44;-9.10;99.90
16966;DHT22;8599;47.852;12.070;2022-12-13T05:51:12;-9.00;99.90
16966;DHT22;8599;47.852;12.070;2022-12-13T05:53:40;-8.90;99.90
16966;DHT22;8599;47.852;12.070;2022-12-13T05:56:08;-8.90;99.90
16966;DHT22;8599;47.852;12.070;2022-12-13T05:58:37;-8.70;99.90
16966;DHT22;8599;47.852;12.070;2022-12-13T06:01:06;-8.80;99.90
16966;DHT22;8599;47.852;12.070;2022-12-13T06:03:33;-8.80;99.90
16966;DHT22;8599;47.852;12.070;2022-12-13T06:06:00;-8.70;99.90
16966;DHT22;8599;47.852;12.070;2022-12-13T06:08:28;-8.80;99.90
16966;DHT22;8599;47.852;12.070;2022-12-13T06:10:56;-8.70;99.90
16966;DHT22;8599;47.852;12.070;2022-12-13T06:13:23;-8.60;99.90
16966;DHT22;8599;47.852;12.070;2022-12-13T06:15:50;-8.70;99.90
16966;DHT22;8599;47.852;12.070;2022-12-13T06:18:17;-8.60;99.90
16966;DHT22;8599;47.852;12.070;2022-12-13T06:20:44;-8.70;99.90
16966;DHT22;8599;47.852;12.070;2022-12-13T06:23:12;-8.70;99.90
16966;DHT22;8599;47.852;12.070;2022-12-13T06:25:40;-8.80;99.90
16966;DHT22;8599;47.852;12.070;2022-12-13T06:28:07;-8.70;99.90
16966;DHT22;8599;47.852;12.070;2022-12-13T06:30:34;-8.80;99.90
16966;DHT22;8599;47.852;12.070;2022-12-13T06:33:02;-8.70;99.90
16966;DHT22;8599;47.852;12.070;2022-12-13T06:35:29;-9.00;99.90
16966;DHT22;8599;47.852;12.070;2022-12-13T06:37:56;-9.00;99.90
16966;DHT22;8599;47.852;12.070;2022-12-13T06:40:22;-8.90;99.90
16966;DHT22;8599;47.852;12.070;2022-12-13T06:42:51;-8.90;99.90
16966;DHT22;8599;47.852;12.070;2022-12-13T06:45:18;-8.80;99.90
16966;DHT22;8599;47.852;12.070;2022-12-13T06:47:44;-8.90;99.90
16966;DHT22;8599;47.852;12.070;2022-12-13T06:50:11;-8.90;99.90
16966;DHT22;8599;47.852;12.070;2022-12-13T06:52:38;-9.00;99.90
16966;DHT22;8599;47.852;12.070;2022-12-13T06:55:06;-8.90;99.90
16966;DHT22;8599;47.852;12.070;2022-12-13T06:57:33;-9.00;99.90
16966;DHT22;8599;47.852;12.070;2022-12-13T07:00:02;-9.10;99.90
16966;DHT22;8599;47.852;12.070;2022-12-13T07:02:29;-9.20;99.90
16966;DHT22;8599;47.852;12.070;2022-12-13T07:04:57;-9.20;99.90
16966;DHT22;8599;47.852;12.070;2022-12-13T07:07:24;-9.10;99.90
16966;DHT22;8599;47.852;12.070;2022-12-13T07:09:51;-9.10;99.90
16966;DHT22;8599;47.852;12.070;2022-12-13T07:12:19;-9.00;99.90
16966;DHT22;8599;47.852;12.070;2022-12-13T07:14:46;-9.00;99.90
16966;DHT22;8599;47.852;12.070;2022-12-13T07:17:15;-9.10;99.90
16966;DHT22;8599;47.852;12.070;2022-12-13T07:19:42;-9.00;99.90
16966;DHT22;8599;47.852;12.070;2022-12-13T07:22:08;-8.90;99.90
16966;DHT22;8599;47.852;12.070;2022-12-13T07:24:35;-8.90;99.90
16966;DHT22;8599;47.852;12.070;2022-12-13T07:27:02;-9.00;99.90
16966;DHT22;8599;47.852;12.070;2022-12-13T07:29:29;-8.90;99.90
16966;DHT22;8599;47.852;12.070;2022-12-13T07:31:56;-8.90;99.90
16966;DHT22;8599;47.852;12.070;2022-12-13T07:34:24;-8.90;99.90
16966;DHT22;8599;47.852;12.070;2022-12-13T07:36:51;-8.90;99.90
16966;DHT22;8599;47.852;12.070;2022-12-13T07:39:18;-8.80;99.90
16966;DHT22;8599;47.852;12.070;2022-12-13T07:41:45;-8.80;99.90
16966;DHT22;8599;47.852;12.070;2022-12-13T07:44:11;-8.70;99.90
16966;DHT22;8599;47.852;12.070;2022-12-13T07:46:38;-8.60;99.90
16966;DHT22;8599;47.852;12.070;2022-12-13T07:49:05;-8.70;99.90
16966;DHT22;8599;47.852;12.070;2022-12-13T07:51:34;-8.60;99.90
16966;DHT22;8599;47.852;12.070;2022-12-13T07:54:01;-8.40;99.90
16966;DHT22;8599;47.852;12.070;2022-12-13T07:56:28;-8.30;99.90
16966;DHT22;8599;47.852;12.070;2022-12-13T07:58:54;-8.30;99.90
16966;DHT22;8599;47.852;12.070;2022-12-13T08:01:21;-8.30;99.90
16966;DHT22;8599;47.852;12.070;2022-12-13T08:03:48;-8.20;99.90
16966;DHT22;8599;47.852;12.070;2022-12-13T08:06:15;-8.00;99.90
16966;DHT22;8599;47.852;12.070;2022-12-13T08:08:45;-8.00;99.90
16966;DHT22;8599;47.852;12.070;2022-12-13T08:11:15;-7.90;99.90
16966;DHT22;8599;47.852;12.070;2022-12-13T08:13:42;-7.90;99.90
16966;DHT22;8599;47.852;12.070;2022-12-13T08:16:10;-7.90;99.90
16966;DHT22;8599;47.852;12.070;2022-12-13T08:18:39;-7.90;99.90
16966;DHT22;8599;47.852;12.070;2022-12-13T08:21:06;-7.90;99.90
16966;DHT22;8599;47.852;12.070;2022-12-13T08:23:35;-7.90;99.90
16966;DHT22;8599;47.852;12.070;2022-12-13T08:26:04;-7.80;99.90
16966;DHT22;8599;47.852;12.070;2022-12-13T08:28:32;-7.80;99.90
16966;DHT22;8599;47.852;12.070;2022-12-13T08:31:03;-7.70;99.90
16966;DHT22;8599;47.852;12.070;2022-12-13T08:33:31;-7.50;99.90
16966;DHT22;8599;47.852;12.070;2022-12-13T08:36:06;-7.40;99.90
16966;DHT22;8599;47.852;12.070;2022-12-13T08:38:33;-7.50;99.90
16966;DHT22;8599;47.852;12.070;2022-12-13T08:41:00;-7.50;99.90
16966;DHT22;8599;47.852;12.070;2022-12-13T08:43:28;-7.40;99.90
16966;DHT22;8599;47.852;12.070;2022-12-13T08:45:55;-7.40;99.90
16966;DHT22;8599;47.852;12.070;2022-12-13T08:48:21;-7.40;99.90
16966;DHT22;8599;47.852;12.070;2022-12-13T08:50:48;-7.40;99.90
16966;DHT22;8599;47.852;12.070;2022-12-13T08:53:15;-7.20;99.90
16966;DHT22;8599;47.852;12.070;2022-12-13T08:55:42;-7.10;99.90
16966;DHT22;8599;47.852;12.070;2022-12-13T08:58:09;-7.20;99.90
16966;DHT22;8599;47.852;12.070;2022-12-13T09:00:37;-7.20;99.90
16966;DHT22;8599;47.852;12.070;2022-12-13T09:03:05;-7.10;99.90
16966;DHT22;8599;47.852;12.070;2022-12-13T09:05:32;-7.00;99.90
16966;DHT22;8599;47.852;12.070;2022-12-13T09:07:59;-7.10;99.90
16966;DHT22;8599;47.852;12.070;2022-12-13T09:10:27;-7.00;99.90
16966;DHT22;8599;47.852;12.070;2022-12-13T09:12:54;-7.10;99.90
16966;DHT22;8599;47.852;12.070;2022-12-13T09:15:24;-7.20;99.90
16966;DHT22;8599;47.852;12.070;2022-12-13T09:17:52;-7.10;99.90
16966;DHT22;8599;47.852;12.070;2022-12-13T09:20:19;-7.00;99.90
16966;DHT22;8599;47.852;12.070;2022-12-13T09:22:46;-7.00;99.90
16966;DHT22;8599;47.852;12.070;2022-12-13T09:25:13;-6.90;99.90
16966;DHT22;8599;47.852;12.070;2022-12-13T09:27:40;-6.80;99.90
16966;DHT22;8599;47.852;12.070;2022-12-13T09:30:08;-6.70;99.90
16966;DHT22;8599;47.852;12.070;2022-12-13T09:32:37;-6.60;99.90
16966;DHT22;8599;47.852;12.070;2022-12-13T09:35:07;-6.50;99.90
16966;DHT22;8599;47.852;12.070;2022-12-13T09:37:34;-6.50;99.90
16966;DHT22;8599;47.852;12.070;2022-12-13T09:40:01;-6.40;99.90
16966;DHT22;8599;47.852;12.070;2022-12-13T09:42:29;-6.40;99.90
16966;DHT22;8599;47.852;12.070;2022-12-13T09:44:58;-6.40;99.90
16966;DHT22;8599;47.852;12.070;2022-12-13T09:47:32;-6.40;99.90
16966;DHT22;8599;47.852;12.070;2022-12-13T09:50:01;-6.20;99.90
16966;DHT22;8599;47.852;12.070;2022-12-13T09:52:36;-6.20;99.90
16966;DHT22;8599;47.852;12.070;2022-12-13T09:55:19;-6.20;99.90
16966;DHT22;8599;47.852;12.070;2022-12-13T09:57:46;-6.10;99.90
16966;DHT22;8599;47.852;12.070;2022-12-13T10:00:16;-6.00;99.90
16966;DHT22;8599;47.852;12.070;2022-12-13T10:02:45;-6.00;99.90
16966;DHT22;8599;47.852;12.070;2022-12-13T10:05:22;-6.00;99.90
16966;DHT22;8599;47.852;12.070;2022-12-13T10:07:54;-5.90;99.90
16966;DHT22;8599;47.852;12.070;2022-12-13T10:10:22;-5.90;99.90
16966;DHT22;8599;47.852;12.070;2022-12-13T10:12:53;-5.90;99.90
16966;DHT22;8599;47.852;12.070;2022-12-13T10:15:21;-5.90;99.90
16966;DHT22;8599;47.852;12.070;2022-12-13T10:17:49;-5.90;99.90
16966;DHT22;8599;47.852;12.070;2022-12-13T10:20:19;-5.80;99.90
16966;DHT22;8599;47.852;12.070;2022-12-13T10:22:51;-6.00;99.90
16966;DHT22;8599;47.852;12.070;2022-12-13T10:25:49;-5.90;99.90
16966;DHT22;8599;47.852;12.070;2022-12-13T10:28:24;-6.00;99.90
16966;DHT22;8599;47.852;12.070;2022-12-13T10:30:52;-5.90;99.90
16966;DHT22;8599;47.852;12.070;2022-12-13T10:33:22;-5.80;99.90
16966;DHT22;8599;47.852;12.070;2022-12-13T10:36:06;-5.70;99.90
16966;DHT22;8599;47.852;12.070;2022-12-13T10:38:39;-5.70;99.90
16966;DHT22;8599;47.852;12.070;2022-12-13T10:41:31;-5.60;99.90
16966;DHT22;8599;47.852;12.070;2022-12-13T10:44:20;-5.50;99.90
16966;DHT22;8599;47.852;12.070;2022-12-13T10:46:52;-5.50;99.90
16966;DHT22;8599;47.852;12.070;2022-12-13T10:49:21;-5.40;99.90
16966;DHT22;8599;47.852;12.070;2022-12-13T10:51:49;-5.40;99.90
16966;DHT22;8599;47.852;12.070;2022-12-13T10:54:25;-5.40;99.90
16966;DHT22;8599;47.852;12.070;2022-12-13T10:56:53;-5.50;99.90
16966;DHT22;8599;47.852;12.070;2022-12-13T10:59:29;-5.40;99.90
16966;DHT22;8599;47.852;12.070;2022-12-13T11:01:57;-5.40;99.90
16966;DHT22;8599;47.852;12.070;2022-12-13T11:04:27;-5.30;99.90
16966;DHT22;8599;47.852;12.070;2022-12-13T11:06:57;-5.30;99.90
16966;DHT22;8599;47.852;12.070;2022-12-13T11:09:27;-5.20;99.90
16966;DHT22;8599;47.852;12.070;2022-12-13T11:11:57;-5.30;99.90
16966;DHT22;8599;47.852;12.070;2022-12-13T11:14:25;-5.20;99.90
16966;DHT22;8599;47.852;12.070;2022-12-13T11:16:55;-5.10;99.90
16966;DHT22;8599;47.852;12.070;2022-12-13T11:19:26;-5.10;99.90
16966;DHT22;8599;47.852;12.070;2022-12-13T11:21:58;-5.10;99.90
16966;DHT22;8599;47.852;12.070;2022-12-13T11:24:29;-5.00;99.90
16966;DHT22;8599;47.852;12.070;2022-12-13T11:26:59;-5.10;99.90
16966;DHT22;8599;47.852;12.070;2022-12-13T11:29:47;-5.10;99.90
16966;DHT22;8599;47.852;12.070;2022-12-13T11:32:22;-5.00;99.90
16966;DHT22;8599;47.852;12.070;2022-12-13T11:34:57;-4.90;99.90
16966;DHT22;8599;47.852;12.070;2022-12-13T11:37:31;-4.80;99.90
16966;DHT22;8599;47.852;12.070;2022-12-13T11:40:04;-4.70;99.90
16966;DHT22;8599;47.852;12.070;2022-12-13T11:42:37;-4.70;99.90
16966;DHT22;8599;47.852;12.070;2022-12-13T11:45:11;-4.50;99.90
16966;DHT22;8599;47.852;12.070;2022-12-13T11:47:44;-4.30;99.90
16966;DHT22;8599;47.852;12.070;2022-12-13T11:50:15;-4.30;99.90
16966;DHT22;8599;47.852;12.070;2022-12-13T11:52:46;-4.30;99.90
16966;DHT22;8599;47.852;12.070;2022-12-13T11:55:18;-4.30;99.90
16966;DHT22;8599;47.852;12.070;2022-12-13T11:57:53;-4.20;99.90
16966;DHT22;8599;47.852;12.070;2022-12-13T12:00:41;-4.00;99.90
16966;DHT22;8599;47.852;12.070;2022-12-13T12:03:15;-3.90;99.90
16966;DHT22;8599;47.852;12.070;2022-12-13T12:05:46;-3.90;99.90
16966;DHT22;8599;47.852;12.070;2022-12-13T12:08:18;-4.00;99.90
16966;DHT22;8599;47.852;12.070;2022-12-13T12:10:49;-3.90;99.90
16966;DHT22;8599;47.852;12.070;2022-12-13T12:13:22;-3.90;99.90
16966;DHT22;8599;47.852;12.070;2022-12-13T12:15:58;-4.00;99.90
16966;DHT22;8599;47.852;12.070;2022-12-13T12:18:30;-3.90;99.90
16966;DHT22;8599;47.852;12.070;2022-12-13T12:21:07;-3.80;99.90
16966;DHT22;8599;47.852;12.070;2022-12-13T12:23:47;-3.80;99.90
16966;DHT22;8599;47.852;12.070;2022-12-13T12:26:24;-3.70;99.90
16966;DHT22;8599;47.852;12.070;2022-12-13T12:29:09;-3.60;99.90
16966;DHT22;8599;47.852;12.070;2022-12-13T12:31:46;-3.50;99.90
16966;DHT22;8599;47.852;12.070;2022-12-13T12:34:25;-3.40;99.90
16966;DHT22;8599;47.852;12.070;2022-12-13T12:37:04;-3.40;99.90
16966;DHT22;8599;47.852;12.070;2022-12-13T12:39:42;-3.40;99.90
16966;DHT22;8599;47.852;12.070;2022-12-13T12:42:27;-3.50;99.90
16966;DHT22;8599;47.852;12.070;2022-12-13T12:45:13;-3.70;99.90
16966;DHT22;8599;47.852;12.070;2022-12-13T12:47:48;-3.60;99.90
16966;DHT22;8599;47.852;12.070;2022-12-13T12:50:28;-3.50;99.90
16966;DHT22;8599;47.852;12.070;2022-12-13T12:53:14;-3.40;99.90
16966;DHT22;8599;47.852;12.070;2022-12-13T12:55:49;-3.00;99.90
16966;DHT22;8599;47.852;12.070;2022-12-13T12:58:25;-2.60;99.90
16966;DHT22;8599;47.852;12.070;2022-12-13T13:01:10;-2.60;99.90
16966;DHT22;8599;47.852;12.070;2022-12-13T13:03:41;-2.70;99.90
16966;DHT22;8599;47.852;12.070;2022-12-13T13:06:11;-2.40;99.90
16966;DHT22;8599;47.852;12.070;2022-12-13T13:08:41;-2.00;99.90
16966;DHT22;8599;47.852;12.070;2022-12-13T13:11:10;-1.70;99.90
16966;DHT22;8599;47.852;12.070;2022-12-13T13:13:45;-1.70;99.90
16966;DHT22;8599;47.852;12.070;2022-12-13T13:16:30;-1.90;99.90
16966;DHT22;8599;47.852;12.070;2022-12-13T13:18:58;-2.20;99.90
16966;DHT22;8599;47.852;12.070;2022-12-13T13:21:30;-2.40;99.90
16966;DHT22;8599;47.852;12.070;2022-12-13T13:24:21;-2.50;99.90
16966;DHT22;8599;47.852;12.070;2022-12-13T13:26:49;-2.70;99.90
16966;DHT22;8599;47.852;12.070;2022-12-13T13:29:27;-2.70;99.90
16966;DHT22;8599;47.852;12.070;2022-12-13T13:31:57;-2.80;99.90
16966;DHT22;8599;47.852;12.070;2022-12-13T13:34:25;-2.90;99.90
16966;DHT22;8599;47.852;12.070;2022-12-13T13:36:53;-2.90;99.90
16966;DHT22;8599;47.852;12.070;2022-12-13T13:42:33;-2.90;99.90
16966;DHT22;8599;47.852;12.070;2022-12-13T13:45:20;-2.80;99.90
16966;DHT22;8599;47.852;12.070;2022-12-13T13:48:01;-2.90;99.90
16966;DHT22;8599;47.852;12.070;2022-12-13T13:50:47;-2.90;99.90
16966;DHT22;8599;47.852;12.070;2022-12-13T13:56:34;-2.90;99.90
16966;DHT22;8599;47.852;12.070;2022-12-13T13:59:31;-3.10;99.90
16966;DHT22;8599;47.852;12.070;2022-12-13T14:08:33;-3.30;99.90
16966;DHT22;8599;47.852;12.070;2022-12-13T14:15:04;-3.30;99.90
16966;DHT22;8599;47.852;12.070;2022-12-13T14:20:44;-3.40;99.90
16966;DHT22;8599;47.852;12.070;2022-12-13T14:23:20;-3.30;99.90
16966;DHT22;8599;47.852;12.070;2022-12-13T14:26:05;-3.30;99.90
16966;DHT22;8599;47.852;12.070;2022-12-13T14:28:44;-3.30;99.90
16966;DHT22;8599;47.852;12.070;2022-12-13T14:31:14;-3.30;99.90
16966;DHT22;8599;47.852;12.070;2022-12-13T14:33:44;-3.50;99.90
16966;DHT22;8599;47.852;12.070;2022-12-13T14:36:15;-3.60;99.90
16966;DHT22;8599;47.852;12.070;2022-12-13T14:38:42;-3.60;99.90
16966;DHT22;8599;47.852;12.070;2022-12-13T14:41:15;-3.50;99.90
16966;DHT22;8599;47.852;12.070;2022-12-13T14:43:43;-3.50;99.90
16966;DHT22;8599;47.852;12.070;2022-12-13T14:46:12;-3.60;99.90
16966;DHT22;8599;47.852;12.070;2022-12-13T14:48:45;-3.60;99.90
16966;DHT22;8599;47.852;12.070;2022-12-13T14:51:31;-3.60;99.90
16966;DHT22;8599;47.852;12.070;2022-12-13T14:54:00;-3.80;99.90
16966;DHT22;8599;47.852;12.070;2022-12-13T14:56:28;-3.80;99.90
16966;DHT22;8599;47.852;12.070;2022-12-13T14:58:56;-3.90;99.90
16966;DHT22;8599;47.852;12.070;2022-12-13T15:01:25;-4.00;99.90
16966;DHT22;8599;47.852;12.070;2022-12-13T15:04:14;-4.00;99.90
16966;DHT22;8599;47.852;12.070;2022-12-13T15:06:42;-4.00;99.90
16966;DHT22;8599;47.852;12.070;2022-12-13T15:09:11;-4.20;99.90
16966;DHT22;8599;47.852;12.070;2022-12-13T15:11:38;-4.30;99.90
16966;DHT22;8599;47.852;12.070;2022-12-13T15:14:12;-4.40;99.90
16966;DHT22;8599;47.852;12.070;2022-12-13T15:16:46;-4.40;99.90
16966;DHT22;8599;47.852;12.070;2022-12-13T15:19:16;-4.40;99.90
16966;DHT22;8599;47.852;12.070;2022-12-13T15:21:53;-4.20;99.90
16966;DHT22;8599;47.852;12.070;2022-12-13T15:24:22;-4.30;99.90
16966;DHT22;8599;47.852;12.070;2022-12-13T15:26:51;-4.50;99.90
16966;DHT22;8599;47.852;12.070;2022-12-13T15:29:20;-4.50;99.90
16966;DHT22;8599;47.852;12.070;2022-12-13T15:31:48;-4.50;99.90
16966;DHT22;8599;47.852;12.070;2022-12-13T15:34:31;-4.50;99.90
16966;DHT22;8599;47.852;12.070;2022-12-13T15:37:00;-4.50;99.90
16966;DHT22;8599;47.852;12.070;2022-12-13T15:39:28;-4.60;99.90
16966;DHT22;8599;47.852;12.070;2022-12-13T15:41:56;-4.70;99.90
16966;DHT22;8599;47.852;12.070;2022-12-13T15:44:26;-4.60;99.90
16966;DHT22;8599;47.852;12.070;2022-12-13T15:46:59;-4.60;99.90
16966;DHT22;8599;47.852;12.070;2022-12-13T15:49:31;-4.60;99.90
16966;DHT22;8599;47.852;12.070;2022-12-13T15:52:01;-4.60;99.90
16966;DHT22;8599;47.852;12.070;2022-12-13T15:54:29;-4.60;99.90
16966;DHT22;8599;47.852;12.070;2022-12-13T15:57:02;-4.60;99.90
16966;DHT22;8599;47.852;12.070;2022-12-13T15:59:37;-4.60;99.90
16966;DHT22;8599;47.852;12.070;2022-12-13T16:02:13;-4.70;99.90
16966;DHT22;8599;47.852;12.070;2022-12-13T16:04:41;-4.70;99.90
16966;DHT22;8599;47.852;12.070;2022-12-13T16:07:20;-4.80;99.90
16966;DHT22;8599;47.852;12.070;2022-12-13T16:09:49;-4.80;99.90
16966;DHT22;8599;47.852;12.070;2022-12-13T16:12:21;-4.80;99.90
16966;DHT22;8599;47.852;12.070;2022-12-13T16:14:48;-4.80;99.90
16966;DHT22;8599;47.852;12.070;2022-12-13T16:17:21;-4.70;99.90